sensor_id;sensor_type;location;lat;lon;timestamp;P1;durP1;ratioP1;P2;durP2;ratioP2
35418;SDS011;21525;41.240;16.500;2023-12-07T00:01:38;11.60;;;3.20;;
35418;SDS011;21525;41.240;16.500;2023-12-07T00:04:04;6.50;;;3.00;;
35418;SDS011;21525;41.240;16.500;2023-12-07T00:06:30;3.83;;;2.15;;
35418;SDS011;21525;41.240;16.500;2023-12-07T00:08:56;5.68;;;2.60;;
35418;SDS011;21525;41.240;16.500;2023-12-07T00:11:22;4.88;;;2.78;;
35418;SDS011;21525;41.240;16.500;2023-12-07T00:13:48;6.40;;;2.65;;
35418;SDS011;21525;41.240;16.500;2023-12-07T00:16:14;7.05;;;2.70;;
35418;SDS011;21525;41.240;16.500;2023-12-07T00:18:40;3.97;;;2.70;;
35418;SDS011;21525;41.240;16.500;2023-12-07T00:21:07;5.95;;;2.30;;
35418;SDS011;21525;41.240;16.500;2023-12-07T00:23:34;3.88;;;2.42;;
35418;SDS011;21525;41.240;16.500;2023-12-07T00:26:00;5.53;;;2.70;;
35418;SDS011;21525;41.240;16.500;2023-12-07T00:28:25;4.35;;;2.75;;
35418;SDS011;21525;41.240;16.500;2023-12-07T00:30:51;5.57;;;3.30;;
35418;SDS011;21525;41.240;16.500;2023-12-07T00:33:17;6.43;;;2.92;;
35418;SDS011;21525;41.240;16.500;2023-12-07T00:35:43;5.95;;;3.28;;
35418;SDS011;21525;41.240;16.500;2023-12-07T00:38:09;8.18;;;3.35;;
35418;SDS011;21525;41.240;16.500;2023-12-07T00:40:36;7.28;;;2.95;;
35418;SDS011;21525;41.240;16.500;2023-12-07T00:43:04;5.13;;;2.97;;
35418;SDS011;21525;41.240;16.500;2023-12-07T00:45:29;6.13;;;2.65;;
35418;SDS011;21525;41.240;16.500;2023-12-07T00:47:56;4.88;;;2.83;;
35418;SDS011;21525;41.240;16.500;2023-12-07T00:50:22;5.65;;;2.78;;
35418;SDS011;21525;41.240;16.500;2023-12-07T00:52:47;5.53;;;3.20;;
35418;SDS011;21525;41.240;16.500;2023-12-07T00:55:13;6.63;;;3.03;;
35418;SDS011;21525;41.240;16.500;2023-12-07T00:57:39;6.90;;;3.30;;
35418;SDS011;21525;41.240;16.500;2023-12-07T01:00:05;6.28;;;3.10;;
35418;SDS011;21525;41.240;16.500;2023-12-07T01:02:33;7.82;;;3.40;;
35418;SDS011;21525;41.240;16.500;2023-12-07T01:04:59;8.15;;;3.40;;
35418;SDS011;21525;41.240;16.500;2023-12-07T01:07:25;6.43;;;3.00;;
35418;SDS011;21525;41.240;16.500;2023-12-07T01:09:51;6.60;;;3.22;;
35418;SDS011;21525;41.240;16.500;2023-12-07T01:12:17;5.45;;;2.80;;
35418;SDS011;21525;41.240;16.500;2023-12-07T01:14:43;4.80;;;3.20;;
35418;SDS011;21525;41.240;16.500;2023-12-07T01:17:09;6.60;;;2.97;;
35418;SDS011;21525;41.240;16.500;2023-12-07T01:19:34;6.85;;;3.70;;
35418;SDS011;21525;41.240;16.500;2023-12-07T01:22:00;6.90;;;3.63;;
35418;SDS011;21525;41.240;16.500;2023-12-07T01:24:26;5.93;;;3.42;;
35418;SDS011;21525;41.240;16.500;2023-12-07T01:26:52;10.30;;;4.00;;
35418;SDS011;21525;41.240;16.500;2023-12-07T01:29:18;5.88;;;3.40;;
35418;SDS011;21525;41.240;16.500;2023-12-07T01:31:44;4.85;;;3.30;;
35418;SDS011;21525;41.240;16.500;2023-12-07T01:34:10;5.85;;;2.95;;
35418;SDS011;21525;41.240;16.500;2023-12-07T01:36:36;5.05;;;2.60;;
35418;SDS011;21525;41.240;16.500;2023-12-07T01:39:01;7.30;;;2.97;;
35418;SDS011;21525;41.240;16.500;2023-12-07T01:41:28;5.05;;;3.20;;
35418;SDS011;21525;41.240;16.500;2023-12-07T01:43:54;7.32;;;3.40;;
35418;SDS011;21525;41.240;16.500;2023-12-07T01:46:19;10.45;;;3.50;;
35418;SDS011;21525;41.240;16.500;2023-12-07T01:48:46;5.72;;;3.42;;
35418;SDS011;21525;41.240;16.500;2023-12-07T01:51:15;8.00;;;3.13;;
35418;SDS011;21525;41.240;16.500;2023-12-07T01:53:43;5.38;;;3.42;;
35418;SDS011;21525;41.240;16.500;2023-12-07T01:56:09;8.75;;;3.75;;
35418;SDS011;21525;41.240;16.500;2023-12-07T01:58:36;6.25;;;3.35;;
35418;SDS011;21525;41.240;16.500;2023-12-07T02:01:02;6.90;;;3.80;;
35418;SDS011;21525;41.240;16.500;2023-12-07T02:03:30;5.25;;;3.58;;
35418;SDS011;21525;41.240;16.500;2023-12-07T02:05:57;7.43;;;3.75;;
35418;SDS011;21525;41.240;16.500;2023-12-07T02:08:23;6.63;;;3.60;;
35418;SDS011;21525;41.240;16.500;2023-12-07T02:10:50;7.57;;;3.60;;
35418;SDS011;21525;41.240;16.500;2023-12-07T02:13:18;6.03;;;3.80;;
35418;SDS011;21525;41.240;16.500;2023-12-07T02:15:46;5.85;;;3.63;;
35418;SDS011;21525;41.240;16.500;2023-12-07T02:20:57;7.65;;;4.03;;
35418;SDS011;21525;41.240;16.500;2023-12-07T02:23:33;7.25;;;3.83;;
35418;SDS011;21525;41.240;16.500;2023-12-07T02:26:02;7.55;;;3.65;;
35418;SDS011;21525;41.240;16.500;2023-12-07T02:28:29;9.48;;;4.22;;
35418;SDS011;21525;41.240;16.500;2023-12-07T02:30:55;8.43;;;4.20;;
35418;SDS011;21525;41.240;16.500;2023-12-07T02:33:20;7.50;;;3.97;;
35418;SDS011;21525;41.240;16.500;2023-12-07T02:35:47;7.72;;;4.35;;
35418;SDS011;21525;41.240;16.500;2023-12-07T02:38:12;9.48;;;4.75;;
35418;SDS011;21525;41.240;16.500;2023-12-07T02:40:39;13.90;;;6.72;;
35418;SDS011;21525;41.240;16.500;2023-12-07T02:43:07;10.25;;;6.70;;
35418;SDS011;21525;41.240;16.500;2023-12-07T02:45:33;22.15;;;11.50;;
35418;SDS011;21525;41.240;16.500;2023-12-07T02:47:59;34.78;;;18.45;;
35418;SDS011;21525;41.240;16.500;2023-12-07T02:50:25;20.42;;;11.13;;
35418;SDS011;21525;41.240;16.500;2023-12-07T02:52:51;18.15;;;10.63;;
35418;SDS011;21525;41.240;16.500;2023-12-07T02:55:16;21.75;;;10.93;;
35418;SDS011;21525;41.240;16.500;2023-12-07T02:57:42;17.40;;;10.43;;
35418;SDS011;21525;41.240;16.500;2023-12-07T03:00:08;13.88;;;9.10;;
35418;SDS011;21525;41.240;16.500;2023-12-07T03:02:36;10.00;;;6.93;;
35418;SDS011;21525;41.240;16.500;2023-12-07T03:05:02;12.85;;;6.43;;
35418;SDS011;21525;41.240;16.500;2023-12-07T03:07:29;11.73;;;6.88;;
35418;SDS011;21525;41.240;16.500;2023-12-07T03:09:55;10.05;;;6.85;;
35418;SDS011;21525;41.240;16.500;2023-12-07T03:12:20;11.68;;;6.22;;
35418;SDS011;21525;41.240;16.500;2023-12-07T03:14:46;10.75;;;5.47;;
35418;SDS011;21525;41.240;16.500;2023-12-07T03:17:12;8.23;;;5.28;;
35418;SDS011;21525;41.240;16.500;2023-12-07T03:19:39;13.88;;;8.23;;
35418;SDS011;21525;41.240;16.500;2023-12-07T03:22:05;14.70;;;8.77;;
35418;SDS011;21525;41.240;16.500;2023-12-07T03:24:32;9.68;;;5.75;;
35418;SDS011;21525;41.240;16.500;2023-12-07T03:26:59;8.70;;;5.70;;
35418;SDS011;21525;41.240;16.500;2023-12-07T03:29:25;9.18;;;4.63;;
35418;SDS011;21525;41.240;16.500;2023-12-07T03:31:51;10.25;;;5.80;;
35418;SDS011;21525;41.240;16.500;2023-12-07T03:34:17;10.18;;;5.80;;
35418;SDS011;21525;41.240;16.500;2023-12-07T03:36:46;12.70;;;8.00;;
35418;SDS011;21525;41.240;16.500;2023-12-07T03:39:16;12.10;;;7.80;;
35418;SDS011;21525;41.240;16.500;2023-12-07T03:41:50;13.63;;;8.98;;
35418;SDS011;21525;41.240;16.500;2023-12-07T03:44:16;9.52;;;6.40;;
35418;SDS011;21525;41.240;16.500;2023-12-07T03:46:42;7.95;;;5.13;;
35418;SDS011;21525;41.240;16.500;2023-12-07T03:49:08;9.07;;;5.55;;
35418;SDS011;21525;41.240;16.500;2023-12-07T03:51:34;9.50;;;5.80;;
35418;SDS011;21525;41.240;16.500;2023-12-07T03:54:02;9.07;;;4.97;;
35418;SDS011;21525;41.240;16.500;2023-12-07T03:56:29;11.57;;;4.70;;
35418;SDS011;21525;41.240;16.500;2023-12-07T03:58:56;10.07;;;4.88;;
35418;SDS011;21525;41.240;16.500;2023-12-07T04:01:22;7.88;;;4.70;;
35418;SDS011;21525;41.240;16.500;2023-12-07T04:03:53;9.23;;;5.43;;
35418;SDS011;21525;41.240;16.500;2023-12-07T04:06:20;8.35;;;4.45;;
35418;SDS011;21525;41.240;16.500;2023-12-07T04:08:49;10.32;;;5.65;;
35418;SDS011;21525;41.240;16.500;2023-12-07T04:11:15;8.23;;;4.80;;
35418;SDS011;21525;41.240;16.500;2023-12-07T04:13:41;8.10;;;4.65;;
35418;SDS011;21525;41.240;16.500;2023-12-07T04:16:10;9.48;;;4.75;;
35418;SDS011;21525;41.240;16.500;2023-12-07T04:18:37;9.50;;;5.03;;
35418;SDS011;21525;41.240;16.500;2023-12-07T04:21:03;10.68;;;4.85;;
35418;SDS011;21525;41.240;16.500;2023-12-07T04:23:30;6.68;;;4.05;;
35418;SDS011;21525;41.240;16.500;2023-12-07T04:25:56;8.52;;;3.97;;
35418;SDS011;21525;41.240;16.500;2023-12-07T04:28:22;6.45;;;3.92;;
35418;SDS011;21525;41.240;16.500;2023-12-07T04:30:48;8.50;;;4.00;;
35418;SDS011;21525;41.240;16.500;2023-12-07T04:33:13;8.02;;;4.70;;
35418;SDS011;21525;41.240;16.500;2023-12-07T04:35:39;9.60;;;4.18;;
35418;SDS011;21525;41.240;16.500;2023-12-07T04:38:05;9.23;;;3.88;;
35418;SDS011;21525;41.240;16.500;2023-12-07T04:40:31;8.50;;;4.18;;
35418;SDS011;21525;41.240;16.500;2023-12-07T04:42:57;7.38;;;3.67;;
35418;SDS011;21525;41.240;16.500;2023-12-07T04:45:22;7.35;;;4.13;;
35418;SDS011;21525;41.240;16.500;2023-12-07T04:47:48;9.88;;;4.10;;
35418;SDS011;21525;41.240;16.500;2023-12-07T04:50:15;8.07;;;4.38;;
35418;SDS011;21525;41.240;16.500;2023-12-07T04:52:41;10.82;;;5.05;;
35418;SDS011;21525;41.240;16.500;2023-12-07T04:55:07;6.50;;;4.57;;
35418;SDS011;21525;41.240;16.500;2023-12-07T04:57:33;7.75;;;4.35;;
35418;SDS011;21525;41.240;16.500;2023-12-07T04:59:59;6.45;;;3.95;;
35418;SDS011;21525;41.240;16.500;2023-12-07T05:02:25;6.82;;;4.07;;
35418;SDS011;21525;41.240;16.500;2023-12-07T05:04:53;9.23;;;4.20;;
35418;SDS011;21525;41.240;16.500;2023-12-07T05:07:19;7.28;;;4.00;;
35418;SDS011;21525;41.240;16.500;2023-12-07T05:09:45;6.70;;;3.97;;
35418;SDS011;21525;41.240;16.500;2023-12-07T05:12:11;9.40;;;4.53;;
35418;SDS011;21525;41.240;16.500;2023-12-07T05:14:37;8.50;;;4.50;;
35418;SDS011;21525;41.240;16.500;2023-12-07T05:17:02;6.75;;;4.20;;
35418;SDS011;21525;41.240;16.500;2023-12-07T05:19:28;7.32;;;4.10;;
35418;SDS011;21525;41.240;16.500;2023-12-07T05:21:54;7.10;;;3.75;;
35418;SDS011;21525;41.240;16.500;2023-12-07T05:24:20;10.75;;;3.97;;
35418;SDS011;21525;41.240;16.500;2023-12-07T05:26:46;10.52;;;4.25;;
35418;SDS011;21525;41.240;16.500;2023-12-07T05:29:12;9.45;;;5.18;;
35418;SDS011;21525;41.240;16.500;2023-12-07T05:31:39;8.40;;;5.22;;
35418;SDS011;21525;41.240;16.500;2023-12-07T05:34:05;10.05;;;5.55;;
35418;SDS011;21525;41.240;16.500;2023-12-07T05:36:31;12.15;;;4.93;;
35418;SDS011;21525;41.240;16.500;2023-12-07T05:38:57;11.38;;;5.38;;
35418;SDS011;21525;41.240;16.500;2023-12-07T05:41:23;7.70;;;4.93;;
35418;SDS011;21525;41.240;16.500;2023-12-07T05:43:49;11.18;;;5.40;;
35418;SDS011;21525;41.240;16.500;2023-12-07T05:46:15;10.32;;;5.32;;
35418;SDS011;21525;41.240;16.500;2023-12-07T05:48:43;9.77;;;5.03;;
35418;SDS011;21525;41.240;16.500;2023-12-07T05:51:27;10.63;;;5.15;;
35418;SDS011;21525;41.240;16.500;2023-12-07T05:53:53;8.57;;;5.05;;
35418;SDS011;21525;41.240;16.500;2023-12-07T05:56:19;9.25;;;5.32;;
35418;SDS011;21525;41.240;16.500;2023-12-07T05:58:47;12.20;;;5.38;;
35418;SDS011;21525;41.240;16.500;2023-12-07T06:01:16;12.40;;;5.78;;
35418;SDS011;21525;41.240;16.500;2023-12-07T06:03:43;8.75;;;5.30;;
35418;SDS011;21525;41.240;16.500;2023-12-07T06:06:10;8.70;;;4.60;;
35418;SDS011;21525;41.240;16.500;2023-12-07T06:08:39;10.85;;;4.28;;
35418;SDS011;21525;41.240;16.500;2023-12-07T06:11:05;7.82;;;4.32;;
35418;SDS011;21525;41.240;16.500;2023-12-07T06:13:31;9.55;;;5.75;;
35418;SDS011;21525;41.240;16.500;2023-12-07T06:15:57;9.18;;;5.05;;
35418;SDS011;21525;41.240;16.500;2023-12-07T06:18:22;10.70;;;5.55;;
35418;SDS011;21525;41.240;16.500;2023-12-07T06:20:48;12.05;;;5.40;;
35418;SDS011;21525;41.240;16.500;2023-12-07T06:23:14;10.32;;;5.10;;
35418;SDS011;21525;41.240;16.500;2023-12-07T06:25:40;11.85;;;5.30;;
35418;SDS011;21525;41.240;16.500;2023-12-07T06:28:06;7.72;;;4.25;;
35418;SDS011;21525;41.240;16.500;2023-12-07T06:30:32;8.65;;;4.60;;
35418;SDS011;21525;41.240;16.500;2023-12-07T06:32:57;7.22;;;4.35;;
35418;SDS011;21525;41.240;16.500;2023-12-07T06:35:23;7.50;;;4.38;;
35418;SDS011;21525;41.240;16.500;2023-12-07T06:37:49;13.45;;;5.28;;
35418;SDS011;21525;41.240;16.500;2023-12-07T06:40:15;7.00;;;4.07;;
35418;SDS011;21525;41.240;16.500;2023-12-07T06:42:41;7.72;;;3.88;;
35418;SDS011;21525;41.240;16.500;2023-12-07T06:45:07;10.90;;;4.53;;
35418;SDS011;21525;41.240;16.500;2023-12-07T06:47:37;9.85;;;4.75;;
35418;SDS011;21525;41.240;16.500;2023-12-07T06:50:04;9.95;;;5.15;;
35418;SDS011;21525;41.240;16.500;2023-12-07T06:52:33;8.13;;;3.80;;
35418;SDS011;21525;41.240;16.500;2023-12-07T06:54:59;9.68;;;4.80;;
35418;SDS011;21525;41.240;16.500;2023-12-07T06:57:25;9.75;;;4.32;;
35418;SDS011;21525;41.240;16.500;2023-12-07T06:59:51;7.70;;;4.07;;
35418;SDS011;21525;41.240;16.500;2023-12-07T07:02:16;13.32;;;4.93;;
35418;SDS011;21525;41.240;16.500;2023-12-07T07:04:42;11.13;;;5.05;;
35418;SDS011;21525;41.240;16.500;2023-12-07T07:07:09;5.05;;;3.40;;
35418;SDS011;21525;41.240;16.500;2023-12-07T07:09:35;7.78;;;3.60;;
35418;SDS011;21525;41.240;16.500;2023-12-07T07:12:01;7.68;;;4.55;;
35418;SDS011;21525;41.240;16.500;2023-12-07T07:14:26;9.07;;;3.88;;
35418;SDS011;21525;41.240;16.500;2023-12-07T07:16:52;7.55;;;4.47;;
35418;SDS011;21525;41.240;16.500;2023-12-07T07:19:18;11.70;;;6.00;;
35418;SDS011;21525;41.240;16.500;2023-12-07T07:21:44;9.93;;;5.10;;
35418;SDS011;21525;41.240;16.500;2023-12-07T07:24:09;7.82;;;4.55;;
35418;SDS011;21525;41.240;16.500;2023-12-07T07:26:35;9.90;;;4.57;;
35418;SDS011;21525;41.240;16.500;2023-12-07T07:29:01;9.05;;;4.47;;
35418;SDS011;21525;41.240;16.500;2023-12-07T07:31:29;6.53;;;4.17;;
35418;SDS011;21525;41.240;16.500;2023-12-07T07:33:55;9.32;;;4.35;;
35418;SDS011;21525;41.240;16.500;2023-12-07T07:36:21;8.38;;;4.75;;
35418;SDS011;21525;41.240;16.500;2023-12-07T07:38:46;6.85;;;4.38;;
35418;SDS011;21525;41.240;16.500;2023-12-07T07:41:13;8.90;;;4.95;;
35418;SDS011;21525;41.240;16.500;2023-12-07T07:43:40;9.00;;;5.13;;
35418;SDS011;21525;41.240;16.500;2023-12-07T07:46:06;9.55;;;5.45;;
35418;SDS011;21525;41.240;16.500;2023-12-07T07:48:34;8.75;;;4.65;;
35418;SDS011;21525;41.240;16.500;2023-12-07T07:51:02;8.02;;;4.15;;
35418;SDS011;21525;41.240;16.500;2023-12-07T07:53:28;9.25;;;4.07;;
35418;SDS011;21525;41.240;16.500;2023-12-07T07:55:54;9.48;;;3.88;;
35418;SDS011;21525;41.240;16.500;2023-12-07T07:58:20;9.30;;;4.13;;
35418;SDS011;21525;41.240;16.500;2023-12-07T08:00:46;8.52;;;4.38;;
35418;SDS011;21525;41.240;16.500;2023-12-07T08:03:12;10.65;;;4.20;;
35418;SDS011;21525;41.240;16.500;2023-12-07T08:05:38;7.22;;;4.30;;
35418;SDS011;21525;41.240;16.500;2023-12-07T08:08:04;10.98;;;4.05;;
35418;SDS011;21525;41.240;16.500;2023-12-07T08:10:29;11.52;;;4.63;;
35418;SDS011;21525;41.240;16.500;2023-12-07T08:12:55;8.43;;;4.50;;
35418;SDS011;21525;41.240;16.500;2023-12-07T08:15:21;5.55;;;3.60;;
35418;SDS011;21525;41.240;16.500;2023-12-07T08:17:47;7.60;;;3.67;;
35418;SDS011;21525;41.240;16.500;2023-12-07T08:20:13;9.30;;;4.78;;
35418;SDS011;21525;41.240;16.500;2023-12-07T08:22:40;14.07;;;3.72;;
35418;SDS011;21525;41.240;16.500;2023-12-07T08:25:08;8.98;;;4.10;;
35418;SDS011;21525;41.240;16.500;2023-12-07T08:27:38;8.07;;;3.90;;
35418;SDS011;21525;41.240;16.500;2023-12-07T08:30:04;12.95;;;4.00;;
35418;SDS011;21525;41.240;16.500;2023-12-07T08:32:31;7.85;;;3.47;;
35418;SDS011;21525;41.240;16.500;2023-12-07T08:34:57;10.18;;;3.83;;
35418;SDS011;21525;41.240;16.500;2023-12-07T08:37:23;6.97;;;3.33;;
35418;SDS011;21525;41.240;16.500;2023-12-07T08:39:49;7.88;;;3.28;;
35418;SDS011;21525;41.240;16.500;2023-12-07T08:42:15;9.88;;;3.67;;
35418;SDS011;21525;41.240;16.500;2023-12-07T08:44:42;11.52;;;3.80;;
35418;SDS011;21525;41.240;16.500;2023-12-07T08:47:08;9.40;;;3.75;;
35418;SDS011;21525;41.240;16.500;2023-12-07T08:49:34;7.13;;;3.40;;
35418;SDS011;21525;41.240;16.500;2023-12-07T08:52:00;8.15;;;4.03;;
35418;SDS011;21525;41.240;16.500;2023-12-07T08:54:25;8.18;;;3.55;;
35418;SDS011;21525;41.240;16.500;2023-12-07T08:56:51;10.35;;;4.38;;
35418;SDS011;21525;41.240;16.500;2023-12-07T08:59:17;9.73;;;4.30;;
35418;SDS011;21525;41.240;16.500;2023-12-07T09:01:43;7.93;;;3.97;;
35418;SDS011;21525;41.240;16.500;2023-12-07T09:04:08;11.55;;;4.32;;
35418;SDS011;21525;41.240;16.500;2023-12-07T09:06:35;8.13;;;4.00;;
35418;SDS011;21525;41.240;16.500;2023-12-07T09:09:02;10.25;;;3.95;;
35418;SDS011;21525;41.240;16.500;2023-12-07T09:11:32;9.63;;;3.42;;
35418;SDS011;21525;41.240;16.500;2023-12-07T09:13:57;9.23;;;4.22;;
35418;SDS011;21525;41.240;16.500;2023-12-07T09:16:23;10.65;;;4.05;;
35418;SDS011;21525;41.240;16.500;2023-12-07T09:18:51;8.35;;;3.60;;
35418;SDS011;21525;41.240;16.500;2023-12-07T09:21:17;6.70;;;3.15;;
35418;SDS011;21525;41.240;16.500;2023-12-07T09:23:42;9.57;;;4.35;;
35418;SDS011;21525;41.240;16.500;2023-12-07T09:26:08;6.90;;;3.35;;
35418;SDS011;21525;41.240;16.500;2023-12-07T09:28:34;6.65;;;3.75;;
35418;SDS011;21525;41.240;16.500;2023-12-07T09:31:00;5.38;;;3.10;;
35418;SDS011;21525;41.240;16.500;2023-12-07T09:33:26;6.70;;;3.30;;
35418;SDS011;21525;41.240;16.500;2023-12-07T09:35:51;7.88;;;4.57;;
35418;SDS011;21525;41.240;16.500;2023-12-07T09:38:17;6.97;;;3.35;;
35418;SDS011;21525;41.240;16.500;2023-12-07T09:40:43;6.65;;;3.63;;
35418;SDS011;21525;41.240;16.500;2023-12-07T09:43:11;6.07;;;3.42;;
35418;SDS011;21525;41.240;16.500;2023-12-07T09:45:37;10.93;;;3.92;;
35418;SDS011;21525;41.240;16.500;2023-12-07T09:48:03;6.40;;;3.15;;
35418;SDS011;21525;41.240;16.500;2023-12-07T09:50:30;6.35;;;3.47;;
35418;SDS011;21525;41.240;16.500;2023-12-07T09:52:57;9.73;;;3.42;;
35418;SDS011;21525;41.240;16.500;2023-12-07T09:55:24;8.73;;;4.43;;
35418;SDS011;21525;41.240;16.500;2023-12-07T09:57:50;10.88;;;3.70;;
35418;SDS011;21525;41.240;16.500;2023-12-07T10:00:16;8.35;;;3.22;;
35418;SDS011;21525;41.240;16.500;2023-12-07T10:02:44;8.32;;;3.28;;
35418;SDS011;21525;41.240;16.500;2023-12-07T10:05:12;7.85;;;1.80;;
35418;SDS011;21525;41.240;16.500;2023-12-07T10:07:43;8.57;;;2.90;;
35418;SDS011;21525;41.240;16.500;2023-12-07T10:10:11;4.63;;;2.50;;
35418;SDS011;21525;41.240;16.500;2023-12-07T10:12:43;7.72;;;2.80;;
35418;SDS011;21525;41.240;16.500;2023-12-07T10:15:24;9.15;;;2.38;;
35418;SDS011;21525;41.240;16.500;2023-12-07T10:17:54;6.70;;;2.97;;
35418;SDS011;21525;41.240;16.500;2023-12-07T10:20:25;8.75;;;3.03;;
35418;SDS011;21525;41.240;16.500;2023-12-07T10:25:33;10.52;;;3.03;;
35418;SDS011;21525;41.240;16.500;2023-12-07T10:28:01;6.50;;;3.30;;
35418;SDS011;21525;41.240;16.500;2023-12-07T10:30:32;12.55;;;3.55;;
35418;SDS011;21525;41.240;16.500;2023-12-07T10:32:58;7.40;;;4.15;;
35418;SDS011;21525;41.240;16.500;2023-12-07T10:35:24;6.18;;;3.20;;
35418;SDS011;21525;41.240;16.500;2023-12-07T10:37:51;6.95;;;3.28;;
35418;SDS011;21525;41.240;16.500;2023-12-07T10:40:17;5.93;;;2.75;;
35418;SDS011;21525;41.240;16.500;2023-12-07T10:42:47;4.88;;;2.80;;
35418;SDS011;21525;41.240;16.500;2023-12-07T10:45:14;5.88;;;2.97;;
35418;SDS011;21525;41.240;16.500;2023-12-07T10:47:41;6.32;;;4.20;;
35418;SDS011;21525;41.240;16.500;2023-12-07T10:50:09;9.95;;;3.40;;
35418;SDS011;21525;41.240;16.500;2023-12-07T10:52:45;8.95;;;2.70;;
35418;SDS011;21525;41.240;16.500;2023-12-07T10:55:18;5.13;;;2.23;;
35418;SDS011;21525;41.240;16.500;2023-12-07T10:57:46;5.55;;;2.47;;
35418;SDS011;21525;41.240;16.500;2023-12-07T11:00:12;6.63;;;2.80;;
35418;SDS011;21525;41.240;16.500;2023-12-07T11:02:39;6.93;;;2.70;;
35418;SDS011;21525;41.240;16.500;2023-12-07T11:05:06;6.53;;;2.63;;
35418;SDS011;21525;41.240;16.500;2023-12-07T11:07:45;7.35;;;2.53;;
35418;SDS011;21525;41.240;16.500;2023-12-07T11:10:20;8.07;;;3.70;;
35418;SDS011;21525;41.240;16.500;2023-12-07T11:13:05;8.35;;;3.20;;
35418;SDS011;21525;41.240;16.500;2023-12-07T11:15:38;7.07;;;3.38;;
35418;SDS011;21525;41.240;16.500;2023-12-07T11:18:04;6.35;;;2.50;;
35418;SDS011;21525;41.240;16.500;2023-12-07T11:20:40;7.10;;;2.60;;
35418;SDS011;21525;41.240;16.500;2023-12-07T11:23:09;5.97;;;2.92;;
35418;SDS011;21525;41.240;16.500;2023-12-07T11:25:35;6.47;;;2.28;;
35418;SDS011;21525;41.240;16.500;2023-12-07T11:28:02;5.40;;;2.38;;
35418;SDS011;21525;41.240;16.500;2023-12-07T11:30:33;8.60;;;3.83;;
35418;SDS011;21525;41.240;16.500;2023-12-07T11:33:05;12.27;;;4.35;;
35418;SDS011;21525;41.240;16.500;2023-12-07T11:35:32;5.97;;;2.40;;
35418;SDS011;21525;41.240;16.500;2023-12-07T11:38:08;6.63;;;3.17;;
35418;SDS011;21525;41.240;16.500;2023-12-07T11:43:05;4.88;;;2.55;;
35418;SDS011;21525;41.240;16.500;2023-12-07T11:45:41;5.70;;;2.78;;
35418;SDS011;21525;41.240;16.500;2023-12-07T11:48:14;4.50;;;2.17;;
35418;SDS011;21525;41.240;16.500;2023-12-07T11:56:08;9.38;;;2.55;;
35418;SDS011;21525;41.240;16.500;2023-12-07T11:58:38;4.07;;;2.10;;
35418;SDS011;21525;41.240;16.500;2023-12-07T12:01:04;4.38;;;2.20;;
35418;SDS011;21525;41.240;16.500;2023-12-07T12:03:32;10.05;;;2.90;;
35418;SDS011;21525;41.240;16.500;2023-12-07T12:05:58;4.97;;;2.60;;
35418;SDS011;21525;41.240;16.500;2023-12-07T12:08:24;5.18;;;2.97;;
35418;SDS011;21525;41.240;16.500;2023-12-07T12:10:50;8.10;;;2.72;;
35418;SDS011;21525;41.240;16.500;2023-12-07T12:15:44;8.07;;;2.85;;
35418;SDS011;21525;41.240;16.500;2023-12-07T12:18:11;9.07;;;3.13;;
35418;SDS011;21525;41.240;16.500;2023-12-07T12:20:39;8.77;;;2.17;;
35418;SDS011;21525;41.240;16.500;2023-12-07T12:23:05;8.07;;;2.75;;
35418;SDS011;21525;41.240;16.500;2023-12-07T12:25:31;6.13;;;2.45;;
35418;SDS011;21525;41.240;16.500;2023-12-07T12:28:01;13.60;;;2.63;;
35418;SDS011;21525;41.240;16.500;2023-12-07T12:30:28;5.07;;;2.08;;
35418;SDS011;21525;41.240;16.500;2023-12-07T12:32:55;7.03;;;2.38;;
35418;SDS011;21525;41.240;16.500;2023-12-07T12:35:22;9.85;;;2.10;;
35418;SDS011;21525;41.240;16.500;2023-12-07T12:37:49;6.15;;;2.08;;
35418;SDS011;21525;41.240;16.500;2023-12-07T12:40:15;11.13;;;2.70;;
35418;SDS011;21525;41.240;16.500;2023-12-07T12:42:46;7.28;;;3.05;;
35418;SDS011;21525;41.240;16.500;2023-12-07T12:45:13;4.65;;;1.85;;
35418;SDS011;21525;41.240;16.500;2023-12-07T12:47:41;4.70;;;2.20;;
35418;SDS011;21525;41.240;16.500;2023-12-07T12:50:11;5.60;;;2.50;;
35418;SDS011;21525;41.240;16.500;2023-12-07T12:52:39;3.80;;;1.90;;
35418;SDS011;21525;41.240;16.500;2023-12-07T12:55:08;13.30;;;3.37;;
35418;SDS011;21525;41.240;16.500;2023-12-07T12:57:35;17.92;;;3.00;;
35418;SDS011;21525;41.240;16.500;2023-12-07T13:00:03;15.52;;;3.20;;
35418;SDS011;21525;41.240;16.500;2023-12-07T13:02:30;8.70;;;1.90;;
35418;SDS011;21525;41.240;16.500;2023-12-07T13:04:55;9.20;;;2.72;;
35418;SDS011;21525;41.240;16.500;2023-12-07T13:07:21;5.13;;;1.90;;
35418;SDS011;21525;41.240;16.500;2023-12-07T13:09:50;5.83;;;1.90;;
35418;SDS011;21525;41.240;16.500;2023-12-07T13:12:16;4.28;;;1.70;;
35418;SDS011;21525;41.240;16.500;2023-12-07T13:14:42;3.38;;;1.00;;
35418;SDS011;21525;41.240;16.500;2023-12-07T13:17:07;5.18;;;1.92;;
35418;SDS011;21525;41.240;16.500;2023-12-07T13:22:19;2.72;;;1.35;;
35418;SDS011;21525;41.240;16.500;2023-12-07T13:24:47;6.93;;;1.98;;
35418;SDS011;21525;41.240;16.500;2023-12-07T13:27:13;1.67;;;1.42;;
35418;SDS011;21525;41.240;16.500;2023-12-07T13:29:41;2.55;;;1.85;;
35418;SDS011;21525;41.240;16.500;2023-12-07T13:32:07;2.05;;;1.85;;
35418;SDS011;21525;41.240;16.500;2023-12-07T13:34:33;2.55;;;1.67;;
35418;SDS011;21525;41.240;16.500;2023-12-07T13:36:59;3.28;;;1.85;;
35418;SDS011;21525;41.240;16.500;2023-12-07T13:39:24;3.63;;;2.35;;
35418;SDS011;21525;41.240;16.500;2023-12-07T13:41:52;6.00;;;2.53;;
35418;SDS011;21525;41.240;16.500;2023-12-07T13:44:17;5.63;;;2.47;;
35418;SDS011;21525;41.240;16.500;2023-12-07T13:46:44;6.07;;;2.40;;
35418;SDS011;21525;41.240;16.500;2023-12-07T13:49:10;4.15;;;2.50;;
35418;SDS011;21525;41.240;16.500;2023-12-07T13:51:39;6.93;;;3.40;;
35418;SDS011;21525;41.240;16.500;2023-12-07T13:54:06;5.65;;;2.65;;
35418;SDS011;21525;41.240;16.500;2023-12-07T13:56:34;10.32;;;2.90;;
35418;SDS011;21525;41.240;16.500;2023-12-07T13:59:00;4.13;;;1.90;;
35418;SDS011;21525;41.240;16.500;2023-12-07T14:01:27;3.75;;;2.20;;
35418;SDS011;21525;41.240;16.500;2023-12-07T14:03:53;8.40;;;3.38;;
35418;SDS011;21525;41.240;16.500;2023-12-07T14:06:22;7.32;;;2.58;;
35418;SDS011;21525;41.240;16.500;2023-12-07T14:08:49;11.40;;;2.63;;
35418;SDS011;21525;41.240;16.500;2023-12-07T14:11:16;6.38;;;2.20;;
35418;SDS011;21525;41.240;16.500;2023-12-07T14:13:42;5.72;;;1.60;;
35418;SDS011;21525;41.240;16.500;2023-12-07T14:16:08;5.07;;;2.00;;
35418;SDS011;21525;41.240;16.500;2023-12-07T14:18:34;3.75;;;1.67;;
35418;SDS011;21525;41.240;16.500;2023-12-07T14:21:00;4.05;;;1.52;;
35418;SDS011;21525;41.240;16.500;2023-12-07T14:23:25;4.68;;;1.90;;
35418;SDS011;21525;41.240;16.500;2023-12-07T14:25:52;4.47;;;2.03;;
35418;SDS011;21525;41.240;16.500;2023-12-07T14:28:21;8.50;;;4.43;;
35418;SDS011;21525;41.240;16.500;2023-12-07T14:30:47;6.70;;;3.10;;
35418;SDS011;21525;41.240;16.500;2023-12-07T14:33:13;3.50;;;1.58;;
35418;SDS011;21525;41.240;16.500;2023-12-07T14:35:38;4.40;;;1.60;;
35418;SDS011;21525;41.240;16.500;2023-12-07T14:38:04;3.38;;;1.60;;
35418;SDS011;21525;41.240;16.500;2023-12-07T14:40:30;2.70;;;1.23;;
35418;SDS011;21525;41.240;16.500;2023-12-07T14:42:56;3.85;;;1.13;;
35418;SDS011;21525;41.240;16.500;2023-12-07T14:45:22;5.13;;;1.80;;
35418;SDS011;21525;41.240;16.500;2023-12-07T14:47:49;6.50;;;2.30;;